Time;durP1;ratioP1;P1;durP2;ratioP2;P2;SDS_P1;SDS_P2;PMS_P1;PMS_P2;Temp;Humidity;BMP_temperature;BMP_pressure;BME280_temperature;BME280_humidity;BME280_pressure;Samples;Min_cycle;Max_cycle;Signal;HPM_P1;HPM_P2
2022/05/18 00:00:08;;;;;;;;;;;;;;;;;;5055908;28;19913;-45
2022/05/18 00:02:33;;;;;;;;;;;;;;;;;;5055925;28;19921;-44
2022/05/18 00:04:59;;;;;;;;;;;;;;;;;;5071203;28;19962;-44
2022/05/18 00:07:24;;;;;;;;;;;;;;;;;;5055399;28;19921;-44
2022/05/18 00:09:51;;;;;;;;;;;;;;;;;;5055517;28;19913;-44
2022/05/18 00:12:16;;;;;;;;;;;;;;;;;;5055781;28;19940;-44
2022/05/18 00:14:41;;;;;;;;;;;;;;;;;;5055530;28;19939;-44
2022/05/18 00:17:06;;;;;;;;;;;;;;;;;;5055181;28;20425;-45
2022/05/18 00:19:31;;;;;;;;;;;;;;;;;;5055518;28;19908;-45
2022/05/18 00:21:58;;;;;;;;;;;;;;;;;;5054702;28;20302;-44
2022/05/18 00:24:23;;;;;;;;;;;;;;;;;;5054871;28;19912;-44
2022/05/18 00:26:48;;;;;;;;;;;;;;;;;;5055187;28;19909;-44
2022/05/18 00:29:13;;;;;;;;;;;;;;;;;;5055136;28;20401;-44
2022/05/18 00:31:41;;;;;;;;;;;;;;;;;;5055246;28;19909;-45
2022/05/18 00:34:06;;;;;;;;;;;;;;;;;;5055198;28;19936;-43
2022/05/18 00:36:31;;;;;;;;;;;;;;;;;;5055043;28;20865;-44
2022/05/18 00:38:56;;;;;;;;;;;;;;;;;;5055538;28;19909;-43
2022/05/18 00:41:23;;;;;;;;;;;;;;;;;;5053125;28;19912;-43
2022/05/18 00:43:48;;;;;;;;;;;;;;;;;;5055239;28;19909;-44
2022/05/18 00:46:13;;;;;;;;;;;;;;;;;;5054975;28;19915;-44
2022/05/18 00:48:38;;;;;;;;;;;;;;;;;;5055036;28;19935;-44
2022/05/18 00:51:03;;;;;;;;;;;;;;;;;;5055091;28;20394;-43
2022/05/18 00:53:28;;;;;;;;;;;;;;;;;;5055199;28;19913;-44
2022/05/18 00:55:53;;;;;;;;;;;;;;;;;;5054556;28;19913;-43
2022/05/18 00:58:19;;;;;;;;;;;;;;;;;;5054934;28;19908;-44
2022/05/18 01:00:44;;;;;;;;;;;;;;;;;;5054817;28;19923;-43
2022/05/18 01:03:09;;;;;;;;;;;;;;;;;;5054805;28;19909;-44
2022/05/18 01:05:34;;;;;;;;;;;;;;;;;;5054803;28;19909;-44
2022/05/18 01:07:59;;;;;;;;;;;;;;;;;;5054640;28;19943;-44
2022/05/18 01:10:24;;;;;;;;;;;;;;;;;;5054464;28;19924;-44
2022/05/18 01:12:49;;;;;;;;;;;;;;;;;;5054576;28;19927;-44
2022/05/18 01:15:14;;;;;;;;;;;;;;;;;;5054557;28;19909;-44
2022/05/18 01:17:39;;;;;;;;;;;;;;;;;;5054416;28;20318;-44
2022/05/18 01:20:05;;;;;;;;;;;;;;;;;;5054326;28;19928;-44
2022/05/18 01:22:30;;;;;;;;;;;;;;;;;;5054433;28;19916;-45
2022/05/18 01:24:55;;;;;;;;;;;;;;;;;;5054149;28;20423;-44
2022/05/18 01:27:20;;;;;;;;;;;;;;;;;;5054342;28;20302;-44
2022/05/18 01:29:45;;;;;;;;;;;;;;;;;;5054309;28;19913;-44
2022/05/18 01:32:10;;;;;;;;;;;;;;;;;;5054427;28;19909;-44
2022/05/18 01:34:37;;;;;;;;;;;;;;;;;;5054301;28;19909;-44
2022/05/18 01:37:02;;;;;;;;;;;;;;;;;;5054308;28;19909;-43
2022/05/18 01:39:28;;;;;;;;;;;;;;;;;;5054255;28;20319;-43
2022/05/18 01:41:53;;;;;;;;;;;;;;;;;;5054182;28;19909;-46
2022/05/18 01:44:18;;;;;;;;;;;;;;;;;;5054253;28;20390;-44
2022/05/18 01:46:46;;;;;;;;;;;;;;;;;;5054181;28;19909;-46
2022/05/18 01:49:11;;;;;;;;;;;;;;;;;;5054208;28;19913;-43
2022/05/18 01:51:36;;;;;;;;;;;;;;;;;;5054170;28;19934;-45
2022/05/18 01:54:01;;;;;;;;;;;;;;;;;;5071897;28;19962;-43
2022/05/18 01:56:26;;;;;;;;;;;;;;;;;;5057816;28;19909;-44
2022/05/18 01:58:51;;;;;;;;;;;;;;;;;;5058044;28;19913;-44
2022/05/18 02:01:16;;;;;;;;;;;;;;;;;;5058209;28;19909;-43
2022/05/18 02:03:41;;;;;;;;;;;;;;;;;;5057978;28;19920;-44
2022/05/18 02:06:07;;;;;;;;;;;;;;;;;;5057990;28;19956;-44
2022/05/18 02:08:32;;;;;;;;;;;;;;;;;;5057767;28;20011;-44
2022/05/18 02:10:57;;;;;;;;;;;;;;;;;;5057871;28;19976;-44
2022/05/18 02:13:22;;;;;;;;;;;;;;;;;;5057715;28;19931;-45
2022/05/18 02:15:47;;;;;;;;;;;;;;;;;;5057751;28;19913;-44
2022/05/18 02:18:12;;;;;;;;;;;;;;;;;;5057543;28;19939;-44
2022/05/18 02:20:38;;;;;;;;;;;;;;;;;;5057711;28;19916;-44
2022/05/18 02:23:03;;;;;;;;;;;;;;;;;;5057566;28;19954;-44
2022/05/18 02:25:28;;;;;;;;;;;;;;;;;;5056952;28;19920;-45
2022/05/18 02:27:53;;;;;;;;;;;;;;;;;;5056960;28;19924;-43
2022/05/18 02:30:18;;;;;;;;;;;;;;;;;;5057764;28;19916;-44
2022/05/18 02:32:43;;;;;;;;;;;;;;;;;;5057687;28;19916;-44
2022/05/18 02:35:09;;;;;;;;;;;;;;;;;;5057387;28;20386;-44
2022/05/18 02:37:34;;;;;;;;;;;;;;;;;;5056060;28;20263;-45
2022/05/18 02:39:59;;;;;;;;;;;;;;;;;;5057474;28;19916;-46
2022/05/18 02:42:24;;;;;;;;;;;;;;;;;;5057282;28;19952;-44
2022/05/18 02:44:49;;;;;;;;;;;;;;;;;;5057124;28;19951;-44
2022/05/18 02:47:15;;;;;;;;;;;;;;;;;;5057269;28;20387;-43
2022/05/18 02:49:40;;;;;;;;;;;;;;;;;;5057473;28;20004;-45
2022/05/18 02:52:05;;;;;;;;;;;;;;;;;;5057093;28;20011;-44
2022/05/18 02:57:14;;;;;;;;;;;;;;;;;;5046177;28;19992;-44
2022/05/18 02:59:40;;;;;;;;;;;;;;;;;;5056909;28;20327;-44
2022/05/18 03:02:05;;;;;;;;;;;;;;;;;;5056917;28;19931;-44
2022/05/18 03:04:30;;;;;;;;;;;;;;;;;;5056237;28;20371;-44
2022/05/18 03:06:55;;;;;;;;;;;;;;;;;;5063987;22;20287;-44
2022/05/18 03:09:20;;;;;;;;;;;;;;;;;;5056713;28;19917;-44
2022/05/18 03:11:46;;;;;;;;;;;;;;;;;;5056720;28;19909;-43
2022/05/18 03:14:11;;;;;;;;;;;;;;;;;;5056683;28;19948;-43
2022/05/18 03:16:36;;;;;;;;;;;;;;;;;;5056589;28;19909;-43
2022/05/18 03:19:02;;;;;;;;;;;;;;;;;;5056548;28;19909;-45
2022/05/18 03:24:11;;;;;;;;;;;;;;;;;;5056051;28;19986;-44
2022/05/18 03:26:36;;;;;;;;;;;;;;;;;;5056127;28;20367;-44
2022/05/18 03:29:01;;;;;;;;;;;;;;;;;;5056354;28;19963;-44
2022/05/18 03:31:26;;;;;;;;;;;;;;;;;;5056350;28;19912;-44
2022/05/18 03:33:51;;;;;;;;;;;;;;;;;;5056263;28;20382;-44
2022/05/18 03:36:16;;;;;;;;;;;;;;;;;;5056014;28;20327;-44
2022/05/18 03:38:41;;;;;;;;;;;;;;;;;;5056287;28;19917;-44
2022/05/18 03:41:08;;;;;;;;;;;;;;;;;;5056255;28;20001;-44
2022/05/18 03:43:33;;;;;;;;;;;;;;;;;;5056219;28;19920;-44
2022/05/18 03:45:59;;;;;;;;;;;;;;;;;;5056099;28;19909;-43
2022/05/18 03:48:24;;;;;;;;;;;;;;;;;;5055950;28;19974;-43
2022/05/18 03:50:49;;;;;;;;;;;;;;;;;;5056026;28;19908;-44
2022/05/18 03:53:14;;;;;;;;;;;;;;;;;;5056002;28;20340;-44
2022/05/18 03:55:39;;;;;;;;;;;;;;;;;;5055948;28;19909;-44
2022/05/18 03:58:04;;;;;;;;;;;;;;;;;;5055832;28;19916;-44
2022/05/18 04:00:30;;;;;;;;;;;;;;;;;;5055847;28;19909;-44
2022/05/18 04:02:55;;;;;;;;;;;;;;;;;;5055832;28;19909;-43
2022/05/18 04:05:20;;;;;;;;;;;;;;;;;;5055799;28;19992;-45
2022/05/18 04:07:45;;;;;;;;;;;;;;;;;;5055334;28;19921;-44
2022/05/18 04:10:10;;;;;;;;;;;;;;;;;;5055712;28;19908;-44
2022/05/18 04:12:36;;;;;;;;;;;;;;;;;;5055668;28;19908;-44
2022/05/18 04:15:01;;;;;;;;;;;;;;;;;;5055198;28;19952;-45
2022/05/18 04:17:26;;;;;;;;;;;;;;;;;;5054622;28;20318;-42
2022/05/18 04:19:51;;;;;;;;;;;;;;;;;;5055471;28;19913;-43
2022/05/18 04:22:16;;;;;;;;;;;;;;;;;;5055336;28;19916;-43
2022/05/18 04:24:41;;;;;;;;;;;;;;;;;;5055171;28;19912;-43
2022/05/18 04:27:06;;;;;;;;;;;;;;;;;;5055302;28;19908;-43
2022/05/18 04:29:31;;;;;;;;;;;;;;;;;;5055249;28;19913;-43
2022/05/18 04:31:56;;;;;;;;;;;;;;;;;;5055167;28;19909;-43
2022/05/18 04:34:22;;;;;;;;;;;;;;;;;;5055105;28;19917;-43
2022/05/18 04:36:47;;;;;;;;;;;;;;;;;;5055257;28;19924;-43
2022/05/18 04:39:12;;;;;;;;;;;;;;;;;;5055035;28;19947;-44
2022/05/18 04:41:37;;;;;;;;;;;;;;;;;;5054932;28;19909;-43
2022/05/18 04:44:02;;;;;;;;;;;;;;;;;;5054958;28;20291;-43
2022/05/18 04:46:27;;;;;;;;;;;;;;;;;;5054686;28;19970;-43
2022/05/18 04:48:52;;;;;;;;;;;;;;;;;;5054965;28;19966;-43
2022/05/18 04:51:18;;;;;;;;;;;;;;;;;;5054822;28;19913;-43
2022/05/18 04:53:43;;;;;;;;;;;;;;;;;;5054728;28;19909;-44
2022/05/18 04:56:08;;;;;;;;;;;;;;;;;;5054374;28;19959;-43
2022/05/18 04:58:34;;;;;;;;;;;;;;;;;;5054795;28;19936;-43
2022/05/18 05:00:59;;;;;;;;;;;;;;;;;;5054691;28;20003;-42
2022/05/18 05:03:24;;;;;;;;;;;;;;;;;;5054568;28;19916;-43
2022/05/18 05:05:49;;;;;;;;;;;;;;;;;;5054359;28;19909;-43
2022/05/18 05:08:14;;;;;;;;;;;;;;;;;;5054384;28;19913;-43
2022/05/18 05:10:39;;;;;;;;;;;;;;;;;;5054535;28;19961;-43
2022/05/18 05:13:04;;;;;;;;;;;;;;;;;;5054635;28;20019;-44
2022/05/18 05:15:30;;;;;;;;;;;;;;;;;;5054500;28;20007;-43
2022/05/18 05:17:55;;;;;;;;;;;;;;;;;;5054634;28;19911;-44
2022/05/18 05:20:20;;;;;;;;;;;;;;;;;;5054290;28;19916;-43
2022/05/18 05:22:45;;;;;;;;;;;;;;;;;;5042031;28;19913;-43
2022/05/18 05:25:11;;;;;;;;;;;;;;;;;;5040738;28;19923;-44
2022/05/18 05:27:36;;;;;;;;;;;;;;;;;;5045466;28;19925;-46
2022/05/18 05:30:01;;;;;;;;;;;;;;;;;;5055790;28;19919;-48
2022/05/18 05:32:26;;;;;;;;;;;;;;;;;;5049211;28;19914;-48
2022/05/18 05:34:52;;;;;;;;;;;;;;;;;;5046415;28;20363;-49
2022/05/18 05:37:17;;;;;;;;;;;;;;;;;;5046081;28;19912;-45
2022/05/18 05:39:42;;;;;;;;;;;;;;;;;;5049043;28;19916;-51
2022/05/18 05:42:07;;;;;;;;;;;;;;;;;;5042161;28;20367;-48
2022/05/18 05:44:32;;;;;;;;;;;;;;;;;;5035825;28;20015;-47
2022/05/18 05:46:57;;;;;;;;;;;;;;;;;;5025843;28;19943;-49
2022/05/18 05:49:22;;;;;;;;;;;;;;;;;;5032570;28;20076;-46
2022/05/18 05:51:48;;;;;;;;;;;;;;;;;;5033189;28;20000;-47
2022/05/18 05:54:13;;;;;;;;;;;;;;;;;;5036395;28;19913;-47
2022/05/18 05:56:38;;;;;;;;;;;;;;;;;;5033296;28;19921;-49
2022/05/18 05:59:03;;;;;;;;;;;;;;;;;;5022151;28;20376;-49
2022/05/18 06:01:28;;;;;;;;;;;;;;;;;;5028074;28;19920;-44
2022/05/18 06:03:53;;;;;;;;;;;;;;;;;;5009084;28;19920;-46
2022/05/18 06:06:19;;;;;;;;;;;;;;;;;;5002810;28;19960;-48
2022/05/18 06:08:44;;;;;;;;;;;;;;;;;;4989549;28;21157;-47
2022/05/18 06:11:09;;;;;;;;;;;;;;;;;;4978904;28;19967;-50
2022/05/18 06:13:34;;;;;;;;;;;;;;;;;;4959724;28;19928;-46
2022/05/18 06:15:59;;;;;;;;;;;;;;;;;;4926018;28;19921;-48
2022/05/18 06:18:25;;;;;;;;;;;;;;;;;;4862825;28;19921;-50
2022/05/18 06:20:50;;;;;;;;;;;;;;;;;;4822384;28;19929;-49
2022/05/18 06:23:15;;;;;;;;;;;;;;;;;;4732081;28;20623;-48
2022/05/18 06:25:40;;;;;;;;;;;;;;;;;;4699092;28;21296;-47
2022/05/18 06:28:05;;;;;;;;;;;;;;;;;;4592234;28;21840;-53
2022/05/18 06:30:30;;;;;;;;;;;;;;;;;;4615952;28;21420;-50
2022/05/18 06:32:56;;;;;;;;;;;;;;;;;;4719933;28;20916;-50
2022/05/18 06:35:21;;;;;;;;;;;;;;;;;;4831090;28;19924;-49
2022/05/18 06:37:48;;;;;;;;;;;;;;;;;;4778871;28;20787;-51
2022/05/18 06:40:13;;;;;;;;;;;;;;;;;;4822055;28;21457;-51
2022/05/18 06:42:39;;;;;;;;;;;;;;;;;;4845121;28;19943;-50
2022/05/18 06:45:04;;;;;;;;;;;;;;;;;;4830650;28;20357;-50
2022/05/18 06:47:29;;;;;;;;;;;;;;;;;;4854843;28;21050;-50
2022/05/18 06:49:54;;;;;;;;;;;;;;;;;;4831851;28;19921;-50
2022/05/18 06:52:19;;;;;;;;;;;;;;;;;;4832001;28;21354;-50
2022/05/18 06:54:44;;;;;;;;;;;;;;;;;;4797154;28;26958;-47
2022/05/18 06:57:09;;;;;;;;;;;;;;;;;;4793877;28;21643;-50
2022/05/18 06:59:35;;;;;;;;;;;;;;;;;;4820116;28;19921;-50
2022/05/18 07:02:00;;;;;;;;;;;;;;;;;;4781541;28;21551;-49
2022/05/18 07:04:25;;;;;;;;;;;;;;;;;;4793931;28;19921;-50
2022/05/18 07:06:50;;;;;;;;;;;;;;;;;;4779712;28;19929;-50
2022/05/18 07:09:15;;;;;;;;;;;;;;;;;;4754321;28;28977;-49
2022/05/18 07:11:40;;;;;;;;;;;;;;;;;;4744946;28;30285;-50
2022/05/18 07:14:06;;;;;;;;;;;;;;;;;;4694408;28;29261;-48
2022/05/18 07:16:31;;;;;;;;;;;;;;;;;;4666423;28;30635;-49
2022/05/18 07:18:56;;;;;;;;;;;;;;;;;;4635589;28;20322;-49
2022/05/18 07:21:21;;;;;;;;;;;;;;;;;;4525204;28;20396;-49
2022/05/18 07:23:46;;;;;;;;;;;;;;;;;;4513323;28;22585;-49
2022/05/18 07:26:11;;;;;;;;;;;;;;;;;;4604355;28;22601;-49
2022/05/18 07:28:37;;;;;;;;;;;;;;;;;;4596520;28;27051;-49
2022/05/18 07:31:02;;;;;;;;;;;;;;;;;;4676493;28;26336;-51
2022/05/18 07:33:27;;;;;;;;;;;;;;;;;;4741176;28;21903;-49
2022/05/18 07:35:53;;;;;;;;;;;;;;;;;;4788382;28;20871;-48
2022/05/18 07:38:18;;;;;;;;;;;;;;;;;;4786982;28;21940;-50
2022/05/18 07:40:43;;;;;;;;;;;;;;;;;;4786825;28;22368;-50
2022/05/18 07:43:08;;;;;;;;;;;;;;;;;;4779732;28;27625;-48
2022/05/18 07:45:35;;;;;;;;;;;;;;;;;;4753878;28;22270;-49
2022/05/18 07:48:00;;;;;;;;;;;;;;;;;;4768210;28;21924;-48
2022/05/18 07:50:25;;;;;;;;;;;;;;;;;;4749003;28;21501;-50
2022/05/18 07:52:51;;;;;;;;;;;;;;;;;;4739527;28;23242;-49
2022/05/18 07:55:16;;;;;;;;;;;;;;;;;;4748310;28;20073;-47
2022/05/18 07:57:41;;;;;;;;;;;;;;;;;;4749284;28;19928;-49
2022/05/18 08:00:06;;;;;;;;;;;;;;;;;;4702018;28;20706;-48
2022/05/18 08:02:32;;;;;;;;;;;;;;;;;;4730640;28;20581;-46
2022/05/18 08:04:58;;;;;;;;;;;;;;;;;;4733439;28;20606;-48
2022/05/18 08:07:23;;;;;;;;;;;;;;;;;;4709997;28;20093;-48
2022/05/18 08:15:16;;;;;;;;;;;;;;;;;;4623879;28;22798;-47
2022/05/18 08:17:41;;;;;;;;;;;;;;;;;;4695027;28;29391;-48
2022/05/18 08:20:06;;;;;;;;;;;;;;;;;;4737482;28;20467;-47
2022/05/18 08:22:31;;;;;;;;;;;;;;;;;;4720576;28;23231;-48
2022/05/18 08:24:56;;;;;;;;;;;;;;;;;;4734965;28;26647;-47
2022/05/18 08:27:21;;;;;;;;;;;;;;;;;;4659008;28;26181;-47
2022/05/18 08:29:46;;;;;;;;;;;;;;;;;;4448241;28;19925;-48
2022/05/18 08:32:11;;;;;;;;;;;;;;;;;;4364497;28;40681;-47
2022/05/18 08:34:37;;;;;;;;;;;;;;;;;;4484261;28;31345;-48
2022/05/18 08:37:04;;;;;;;;;;;;;;;;;;4605029;28;28970;-46
2022/05/18 08:39:30;;;;;;;;;;;;;;;;;;4720431;28;39259;-47
2022/05/18 08:41:55;;;;;;;;;;;;;;;;;;4767055;28;34146;-49
2022/05/18 08:44:20;;;;;;;;;;;;;;;;;;4751859;28;36081;-48
2022/05/18 08:46:45;;;;;;;;;;;;;;;;;;4679672;28;26700;-47
2022/05/18 08:49:10;;;;;;;;;;;;;;;;;;4684855;28;26830;-47
2022/05/18 08:51:35;;;;;;;;;;;;;;;;;;4729981;28;40366;-46
2022/05/18 08:54:00;;;;;;;;;;;;;;;;;;4734343;28;35436;-48
2022/05/18 08:56:26;;;;;;;;;;;;;;;;;;4713293;28;35671;-47
2022/05/18 08:58:51;;;;;;;;;;;;;;;;;;4731912;28;38038;-48
2022/05/18 09:01:16;;;;;;;;;;;;;;;;;;4694325;28;20698;-47
2022/05/18 09:03:41;;;;;;;;;;;;;;;;;;4726221;28;26931;-49
2022/05/18 09:06:10;;;;;;;;;;;;;;;;;;4741485;28;35210;-45
2022/05/18 09:08:35;;;;;;;;;;;;;;;;;;4769787;28;26812;-45
2022/05/18 09:11:01;;;;;;;;;;;;;;;;;;4736703;28;33249;-47
2022/05/18 09:13:27;;;;;;;;;;;;;;;;;;4772162;28;37794;-47
2022/05/18 09:15:52;;;;;;;;;;;;;;;;;;4736116;28;28990;-48
2022/05/18 09:18:17;;;;;;;;;;;;;;;;;;4656253;28;21246;-47
2022/05/18 09:20:42;;;;;;;;;;;;;;;;;;4606519;28;19927;-46
2022/05/18 09:23:07;;;;;;;;;;;;;;;;;;4588377;28;24283;-47
2022/05/18 09:25:33;;;;;;;;;;;;;;;;;;4527029;28;23008;-45
2022/05/18 09:27:58;;;;;;;;;;;;;;;;;;4574311;28;28382;-47
2022/05/18 09:30:23;;;;;;;;;;;;;;;;;;4672881;28;25354;-47
2022/05/18 09:32:48;;;;;;;;;;;;;;;;;;4705151;28;19932;-47
2022/05/18 09:35:13;;;;;;;;;;;;;;;;;;4712661;28;21415;-47
2022/05/18 09:37:38;;;;;;;;;;;;;;;;;;4715526;28;20616;-48
2022/05/18 09:40:03;;;;;;;;;;;;;;;;;;4706327;28;22292;-48
2022/05/18 09:42:28;;;;;;;;;;;;;;;;;;4709599;28;39434;-47
2022/05/18 09:44:55;;;;;;;;;;;;;;;;;;4673365;28;36739;-45
2022/05/18 09:47:20;;;;;;;;;;;;;;;;;;4714071;28;25882;-49
2022/05/18 09:49:45;;;;;;;;;;;;;;;;;;4743675;28;26965;-47
2022/05/18 09:52:10;;;;;;;;;;;;;;;;;;4713959;28;27691;-51
2022/05/18 09:54:35;;;;;;;;;;;;;;;;;;4677301;28;25024;-49
2022/05/18 09:57:00;;;;;;;;;;;;;;;;;;4686149;28;34339;-49
2022/05/18 09:59:25;;;;;;;;;;;;;;;;;;4729097;28;26308;-47
2022/05/18 10:07:30;;;;;;;;;;;;;;;;;;4602051;28;32782;-45
2022/05/18 10:09:55;;;;;;;;;;;;;;;;;;4483942;28;35244;-46
2022/05/18 10:12:21;;;;;;;;;;;;;;;;;;4447900;28;20002;-48
2022/05/18 10:14:46;;;;;;;;;;;;;;;;;;4565388;28;25333;-49
2022/05/18 10:17:11;;;;;;;;;;;;;;;;;;4642699;28;25053;-46
2022/05/18 10:19:36;;;;;;;;;;;;;;;;;;4750972;28;23767;-47
2022/05/18 10:22:01;;;;;;;;;;;;;;;;;;4767183;28;29405;-47
2022/05/18 10:24:26;;;;;;;;;;;;;;;;;;4755337;28;27462;-47
2022/05/18 10:26:52;;;;;;;;;;;;;;;;;;4776763;28;26690;-48
2022/05/18 10:29:17;;;;;;;;;;;;;;;;;;4781122;28;21112;-49
2022/05/18 10:31:43;;;;;;;;;;;;;;;;;;4761644;28;29858;-46
2022/05/18 10:34:08;;;;;;;;;;;;;;;;;;4762307;28;37986;-45
2022/05/18 10:36:33;;;;;;;;;;;;;;;;;;4764382;28;36462;-47
2022/05/18 10:39:00;;;;;;;;;;;;;;;;;;4705298;28;38544;-45
2022/05/18 10:41:27;;;;;;;;;;;;;;;;;;4654389;28;45065;-47
2022/05/18 10:43:52;;;;;;;;;;;;;;;;;;4701737;28;22888;-47
2022/05/18 10:46:17;;;;;;;;;;;;;;;;;;4723336;28;23342;-48
2022/05/18 10:48:42;;;;;;;;;;;;;;;;;;4703556;28;31747;-45
2022/05/18 10:51:07;;;;;;;;;;;;;;;;;;4720128;28;21897;-47
2022/05/18 10:53:32;;;;;;;;;;;;;;;;;;4730952;28;22315;-48
2022/05/18 10:55:58;;;;;;;;;;;;;;;;;;4788408;28;19928;-45
2022/05/18 10:58:24;;;;;;;;;;;;;;;;;;4727284;28;31431;-47
2022/05/18 11:00:49;;;;;;;;;;;;;;;;;;4676926;28;32193;-47
2022/05/18 11:03:14;;;;;;;;;;;;;;;;;;4549816;28;51342;-47
2022/05/18 11:05:39;;;;;;;;;;;;;;;;;;4567588;28;22599;-48
2022/05/18 11:08:04;;;;;;;;;;;;;;;;;;4671584;28;22672;-49
2022/05/18 11:10:29;;;;;;;;;;;;;;;;;;4747913;28;22688;-46
2022/05/18 11:12:55;;;;;;;;;;;;;;;;;;4753409;28;19994;-47
2022/05/18 11:15:20;;;;;;;;;;;;;;;;;;4748732;28;19925;-47
2022/05/18 11:17:45;;;;;;;;;;;;;;;;;;4776473;28;20617;-46
2022/05/18 11:20:10;;;;;;;;;;;;;;;;;;4796584;28;25523;-48
2022/05/18 11:22:35;;;;;;;;;;;;;;;;;;4790538;28;19928;-47
2022/05/18 11:25:00;;;;;;;;;;;;;;;;;;4795455;28;21281;-48
2022/05/18 11:27:25;;;;;;;;;;;;;;;;;;4760842;28;25062;-46
2022/05/18 11:29:50;;;;;;;;;;;;;;;;;;4733721;28;31439;-48
2022/05/18 11:32:16;;;;;;;;;;;;;;;;;;4729360;28;24828;-48
2022/05/18 11:34:41;;;;;;;;;;;;;;;;;;4746555;28;27725;-47
2022/05/18 11:37:06;;;;;;;;;;;;;;;;;;4775478;28;33623;-48
2022/05/18 11:39:31;;;;;;;;;;;;;;;;;;4791421;28;26357;-47
2022/05/18 11:41:56;;;;;;;;;;;;;;;;;;4795544;28;23601;-47
2022/05/18 11:44:22;;;;;;;;;;;;;;;;;;4807768;28;25003;-47
2022/05/18 11:46:47;;;;;;;;;;;;;;;;;;4800895;28;24021;-46
2022/05/18 11:49:12;;;;;;;;;;;;;;;;;;4809757;28;27067;-49
2022/05/18 11:51:37;;;;;;;;;;;;;;;;;;4830559;28;20010;-46
2022/05/18 11:54:02;;;;;;;;;;;;;;;;;;4817059;28;22812;-47
2022/05/18 11:56:27;;;;;;;;;;;;;;;;;;4807941;28;25429;-47
2022/05/18 11:59:03;;;;;;;;;;;;;;;;;;4808930;28;25205;-46
2022/05/18 12:01:28;;;;;;;;;;;;;;;;;;4807037;28;19921;-46
2022/05/18 12:03:53;;;;;;;;;;;;;;;;;;4799673;28;19925;-47
2022/05/18 12:06:18;;;;;;;;;;;;;;;;;;4822272;28;20020;-45
2022/05/18 12:08:43;;;;;;;;;;;;;;;;;;4810459;28;27528;-49
2022/05/18 12:11:08;;;;;;;;;;;;;;;;;;4825392;28;23651;-47
2022/05/18 12:13:34;;;;;;;;;;;;;;;;;;4794916;28;26894;-47
2022/05/18 12:15:59;;;;;;;;;;;;;;;;;;4793610;28;23819;-47
2022/05/18 12:18:24;;;;;;;;;;;;;;;;;;4764370;28;27897;-47
2022/05/18 12:20:49;;;;;;;;;;;;;;;;;;4737396;28;23966;-48
2022/05/18 12:23:14;;;;;;;;;;;;;;;;;;4718964;28;23763;-48
2022/05/18 12:25:39;;;;;;;;;;;;;;;;;;4732380;28;26435;-47
2022/05/18 12:28:05;;;;;;;;;;;;;;;;;;4758187;28;29053;-48
2022/05/18 12:30:30;;;;;;;;;;;;;;;;;;4805935;28;19982;-48
2022/05/18 12:32:55;;;;;;;;;;;;;;;;;;4815253;28;20430;-49
2022/05/18 12:35:20;;;;;;;;;;;;;;;;;;4846360;28;19921;-47
2022/05/18 12:37:45;;;;;;;;;;;;;;;;;;4834501;28;24999;-47
2022/05/18 12:40:10;;;;;;;;;;;;;;;;;;4828803;28;20067;-46
2022/05/18 12:42:35;;;;;;;;;;;;;;;;;;4828161;28;22999;-46
2022/05/18 12:45:00;;;;;;;;;;;;;;;;;;4849754;28;20554;-46
2022/05/18 12:47:26;;;;;;;;;;;;;;;;;;4854518;28;19952;-48
2022/05/18 12:49:51;;;;;;;;;;;;;;;;;;4836277;28;20486;-47
2022/05/18 12:52:16;;;;;;;;;;;;;;;;;;4848336;28;25373;-45
2022/05/18 12:54:41;;;;;;;;;;;;;;;;;;4810552;28;20843;-46
2022/05/18 12:57:07;;;;;;;;;;;;;;;;;;4843758;28;22954;-47
2022/05/18 12:59:32;;;;;;;;;;;;;;;;;;4818180;28;19966;-46
2022/05/18 13:01:57;;;;;;;;;;;;;;;;;;4775459;28;23636;-47
2022/05/18 13:04:22;;;;;;;;;;;;;;;;;;4790845;28;25071;-46
2022/05/18 13:06:47;;;;;;;;;;;;;;;;;;4815567;28;22474;-47
2022/05/18 13:09:12;;;;;;;;;;;;;;;;;;4795559;28;32636;-47
2022/05/18 13:11:37;;;;;;;;;;;;;;;;;;4739875;28;25924;-47
2022/05/18 13:14:04;;;;;;;;;;;;;;;;;;4736774;28;26953;-46
2022/05/18 13:16:29;;;;;;;;;;;;;;;;;;4775500;28;25397;-46
2022/05/18 13:18:54;;;;;;;;;;;;;;;;;;4848240;28;28111;-46
2022/05/18 13:21:19;;;;;;;;;;;;;;;;;;4882726;28;19929;-46
2022/05/18 13:23:44;;;;;;;;;;;;;;;;;;4922771;28;23926;-46
2022/05/18 13:26:09;;;;;;;;;;;;;;;;;;4936812;28;20617;-45
2022/05/18 13:28:34;;;;;;;;;;;;;;;;;;4923323;28;20050;-45
2022/05/18 13:31:00;;;;;;;;;;;;;;;;;;4929879;28;21075;-47
2022/05/18 13:33:25;;;;;;;;;;;;;;;;;;4925589;28;19927;-46
2022/05/18 13:35:50;;;;;;;;;;;;;;;;;;4918942;28;19920;-45
2022/05/18 13:38:17;;;;;;;;;;;;;;;;;;4932780;28;20117;-47
2022/05/18 13:40:42;;;;;;;;;;;;;;;;;;4906649;28;19973;-44
2022/05/18 13:43:07;;;;;;;;;;;;;;;;;;4931624;28;20035;-45
2022/05/18 13:45:33;;;;;;;;;;;;;;;;;;4944122;28;19921;-45
2022/05/18 13:47:58;;;;;;;;;;;;;;;;;;4930596;28;20039;-46
2022/05/18 13:50:23;;;;;;;;;;;;;;;;;;4939475;28;19921;-46
2022/05/18 13:52:48;;;;;;;;;;;;;;;;;;4947390;28;19932;-47
2022/05/18 13:55:15;;;;;;;;;;;;;;;;;;4941191;28;19929;-48
2022/05/18 13:57:40;;;;;;;;;;;;;;;;;;4909807;28;19920;-46
2022/05/18 14:00:05;;;;;;;;;;;;;;;;;;4910776;28;19920;-46
2022/05/18 14:02:31;;;;;;;;;;;;;;;;;;4894338;28;20001;-46
2022/05/18 14:04:58;;;;;;;;;;;;;;;;;;4888494;28;19921;-46
2022/05/18 14:07:23;;;;;;;;;;;;;;;;;;4904106;28;20654;-46
2022/05/18 14:09:50;;;;;;;;;;;;;;;;;;4890245;28;21916;-46
2022/05/18 14:12:16;;;;;;;;;;;;;;;;;;4851958;28;20863;-48
2022/05/18 14:14:42;;;;;;;;;;;;;;;;;;4898205;28;23415;-46
2022/05/18 14:17:07;;;;;;;;;;;;;;;;;;4904937;28;19994;-46
2022/05/18 14:19:32;;;;;;;;;;;;;;;;;;4960317;28;19950;-47
2022/05/18 14:21:57;;;;;;;;;;;;;;;;;;4979739;28;19994;-46
2022/05/18 14:24:22;;;;;;;;;;;;;;;;;;4977090;28;19921;-47
2022/05/18 14:26:47;;;;;;;;;;;;;;;;;;4983039;28;19917;-45
2022/05/18 14:29:12;;;;;;;;;;;;;;;;;;4969763;28;20063;-45
2022/05/18 14:31:38;;;;;;;;;;;;;;;;;;4973420;28;20548;-48
2022/05/18 14:34:03;;;;;;;;;;;;;;;;;;4981581;28;19913;-45
2022/05/18 14:36:28;;;;;;;;;;;;;;;;;;4919073;28;21617;-44
2022/05/18 14:38:54;;;;;;;;;;;;;;;;;;4932105;28;20384;-47
2022/05/18 14:41:20;;;;;;;;;;;;;;;;;;4947915;28;19921;-47
2022/05/18 14:43:45;;;;;;;;;;;;;;;;;;4994246;28;19921;-46
2022/05/18 14:46:10;;;;;;;;;;;;;;;;;;5010885;28;19921;-45
2022/05/18 14:48:35;;;;;;;;;;;;;;;;;;5007607;28;20376;-45
2022/05/18 14:51:00;;;;;;;;;;;;;;;;;;5021941;28;19928;-46
2022/05/18 14:53:25;;;;;;;;;;;;;;;;;;5019770;28;19932;-46
2022/05/18 14:55:51;;;;;;;;;;;;;;;;;;5038013;28;19921;-46
2022/05/18 14:58:16;;;;;;;;;;;;;;;;;;5036304;28;19921;-45
2022/05/18 15:00:41;;;;;;;;;;;;;;;;;;5038078;28;19920;-46
2022/05/18 15:03:08;;;;;;;;;;;;;;;;;;5038683;28;20014;-45
2022/05/18 15:05:33;;;;;;;;;;;;;;;;;;5024033;28;19925;-48
2022/05/18 15:07:58;;;;;;;;;;;;;;;;;;5018411;22;21205;-46
2022/05/18 15:10:23;;;;;;;;;;;;;;;;;;5022652;28;19920;-47
2022/05/18 15:12:48;;;;;;;;;;;;;;;;;;5020098;28;19945;-46
2022/05/18 15:15:14;;;;;;;;;;;;;;;;;;5019399;28;19927;-47
2022/05/18 15:17:39;;;;;;;;;;;;;;;;;;5025367;28;20006;-47
2022/05/18 15:20:04;;;;;;;;;;;;;;;;;;5031473;28;19975;-46
2022/05/18 15:22:29;;;;;;;;;;;;;;;;;;5028119;28;19921;-46
2022/05/18 15:24:54;;;;;;;;;;;;;;;;;;5021717;28;20280;-46
2022/05/18 15:27:19;;;;;;;;;;;;;;;;;;5026812;28;19960;-46
2022/05/18 15:29:44;;;;;;;;;;;;;;;;;;5028237;28;20591;-46
2022/05/18 15:32:10;;;;;;;;;;;;;;;;;;5024227;28;20300;-46
2022/05/18 15:34:35;;;;;;;;;;;;;;;;;;5031164;28;19921;-46
2022/05/18 15:37:00;;;;;;;;;;;;;;;;;;5028649;28;19939;-46
2022/05/18 15:39:25;;;;;;;;;;;;;;;;;;5038032;28;20316;-47
2022/05/18 15:41:50;;;;;;;;;;;;;;;;;;5026340;28;19913;-47
2022/05/18 15:44:15;;;;;;;;;;;;;;;;;;5020905;28;19913;-51
2022/05/18 15:46:41;;;;;;;;;;;;;;;;;;5024859;28;19922;-47
2022/05/18 15:49:07;;;;;;;;;;;;;;;;;;5029784;28;19925;-47
2022/05/18 15:51:32;;;;;;;;;;;;;;;;;;5034028;28;20379;-48
2022/05/18 15:53:59;;;;;;;;;;;;;;;;;;5030056;28;19913;-47
2022/05/18 15:56:25;;;;;;;;;;;;;;;;;;5035895;28;19920;-47
2022/05/18 15:58:51;;;;;;;;;;;;;;;;;;5025773;28;19921;-47
2022/05/18 16:01:16;;;;;;;;;;;;;;;;;;5033437;28;19956;-47
2022/05/18 16:03:41;;;;;;;;;;;;;;;;;;5040763;28;19928;-43
2022/05/18 16:06:06;;;;;;;;;;;;;;;;;;5032807;28;19921;-44
2022/05/18 16:08:31;;;;;;;;;;;;;;;;;;5038367;28;20358;-47
2022/05/18 16:10:57;;;;;;;;;;;;;;;;;;5048950;28;19913;-43
2022/05/18 16:13:22;;;;;;;;;;;;;;;;;;5035067;28;19909;-45
2022/05/18 16:15:47;;;;;;;;;;;;;;;;;;5035470;28;19913;-45
2022/05/18 16:18:12;;;;;;;;;;;;;;;;;;5049539;28;19919;-46
2022/05/18 16:20:37;;;;;;;;;;;;;;;;;;5053880;28;19913;-45
2022/05/18 16:23:02;;;;;;;;;;;;;;;;;;5041720;28;20008;-44
2022/05/18 16:25:27;;;;;;;;;;;;;;;;;;5037835;28;19913;-45
2022/05/18 16:27:52;;;;;;;;;;;;;;;;;;5047616;28;19913;-45
2022/05/18 16:30:18;;;;;;;;;;;;;;;;;;5044475;28;19923;-45
2022/05/18 16:32:43;;;;;;;;;;;;;;;;;;5049247;28;19920;-46
2022/05/18 16:35:08;;;;;;;;;;;;;;;;;;5042502;28;20380;-45
2022/05/18 16:37:33;;;;;;;;;;;;;;;;;;5050472;28;19948;-43
2022/05/18 16:39:58;;;;;;;;;;;;;;;;;;5043494;28;20020;-46
2022/05/18 16:42:23;;;;;;;;;;;;;;;;;;5035360;28;20039;-45
2022/05/18 16:44:50;;;;;;;;;;;;;;;;;;5035027;28;19913;-44
2022/05/18 16:47:15;;;;;;;;;;;;;;;;;;5035188;28;19916;-45